Time;durP1;ratioP1;P1;durP2;ratioP2;P2;SDS_P1;SDS_P2;PMS_P1;PMS_P2;Temp;Humidity;BMP_temperature;BMP_pressure;BME280_temperature;BME280_humidity;BME280_pressure;Samples;Min_cycle;Max_cycle;Signal;HPM_P1;HPM_P2
2023/01/04 00:01:51;;;;;;;;;;;;;;;26.35;47.49;97908.36;617057;228;64827;-69
2023/01/04 00:04:18;;;;;;;;;;;;;;;26.35;49.06;97902.97;617066;230;66214;-69
2023/01/04 00:06:46;;;;;;;;;;;;;;;26.34;49.68;97901.34;617016;230;66519;-70
2023/01/04 00:09:13;;;;;;;;;;;;;;;26.33;48.30;97912.42;617001;230;65295;-69
2023/01/04 00:11:41;;;;;;;;;;;;;;;26.34;50.01;97914.02;616999;230;69081;-70
2023/01/04 00:14:09;;;;;;;;;;;;;;;26.32;48.50;97900.81;617045;230;66641;-69
2023/01/04 00:16:36;;;;;;;;;;;;;;;26.32;48.50;97905.41;617086;230;63006;-69
2023/01/04 00:19:03;;;;;;;;;;;;;;;26.31;47.50;97903.81;617015;230;66556;-69
2023/01/04 00:21:31;;;;;;;;;;;;;;;26.30;49.08;97908.40;617003;230;68728;-69
2023/01/04 00:24:00;;;;;;;;;;;;;;;26.30;47.51;97904.87;617035;230;65027;-69
2023/01/04 00:26:29;;;;;;;;;;;;;;;26.29;46.22;97901.39;616961;228;66641;-70
2023/01/04 00:28:58;;;;;;;;;;;;;;;26.30;49.10;97908.40;617032;230;68750;-68
2023/01/04 00:31:26;;;;;;;;;;;;;;;26.28;48.84;97912.47;617073;230;63086;-68
2023/01/04 00:33:55;;;;;;;;;;;;;;;26.29;49.11;97911.36;616952;230;68827;-68
2023/01/04 00:36:23;;;;;;;;;;;;;;;26.27;49.43;97906.27;617031;230;68668;-68
2023/01/04 00:39:05;;;;;;;;;;;;;;;26.27;48.92;97908.97;617018;230;65097;-68
2023/01/04 00:41:20;;;;;;;;;;;;;;;26.25;49.05;97913.03;616301;230;68807;-68
2023/01/04 00:43:48;;;;;;;;;;;;;;;26.25;50.93;97918.42;617057;230;68513;-68
2023/01/04 00:46:15;;;;;;;;;;;;;;;26.23;50.51;97918.69;617002;230;64940;-68
2023/01/04 00:48:42;;;;;;;;;;;;;;;26.24;49.77;97917.59;616991;230;66402;-68
2023/01/04 00:51:10;;;;;;;;;;;;;;;26.22;48.36;97913.58;617037;230;68273;-68
2023/01/04 00:53:37;;;;;;;;;;;;;;;26.22;48.93;97921.66;617010;230;64683;-68
2023/01/04 00:56:05;;;;;;;;;;;;;;;26.20;49.32;97918.47;617055;230;66399;-68
2023/01/04 00:58:32;;;;;;;;;;;;;;;26.20;49.00;97918.47;617019;230;68838;-68
2023/01/04 01:01:01;;;;;;;;;;;;;;;26.20;49.69;97916.56;617003;230;64945;-68
2023/01/04 01:03:28;;;;;;;;;;;;;;;26.17;47.97;97914.45;616944;230;68697;-68
2023/01/04 01:05:57;;;;;;;;;;;;;;;26.18;48.52;97913.34;617052;230;66433;-68
2023/01/04 01:08:25;;;;;;;;;;;;;;;26.17;48.67;97917.14;616960;230;62954;-68
2023/01/04 01:10:53;;;;;;;;;;;;;;;26.16;49.13;97915.52;617026;230;66513;-68
2023/01/04 01:13:21;;;;;;;;;;;;;;;26.14;49.68;97909.62;617031;230;68461;-68
2023/01/04 01:15:49;;;;;;;;;;;;;;;26.14;49.14;97923.09;617020;230;64900;-68
2023/01/04 01:18:16;;;;;;;;;;;;;;;26.13;49.08;97916.08;617023;230;66031;-68
2023/01/04 01:20:44;;;;;;;;;;;;;;;26.13;48.27;97921.47;617065;230;66478;-68
2023/01/04 01:23:14;;;;;;;;;;;;;;;26.12;48.56;97919.87;617037;230;65020;-68
2023/01/04 01:25:42;;;;;;;;;;;;;;;26.12;49.43;97917.18;616806;230;68881;-68
2023/01/04 01:28:09;;;;;;;;;;;;;;;26.11;48.79;97918.28;615774;230;68523;-68
2023/01/04 01:30:41;;;;;;;;;;;;;;;26.10;49.63;97916.66;615616;230;65055;-70
2023/01/04 01:33:09;;;;;;;;;;;;;;;26.09;49.36;97921.24;615602;230;68838;-70
2023/01/04 01:35:36;;;;;;;;;;;;;;;26.09;49.37;97920.44;615663;230;68510;-71
2023/01/04 01:38:04;;;;;;;;;;;;;;;26.09;49.60;97923.14;615597;230;64927;-71
2023/01/04 01:40:31;;;;;;;;;;;;;;;26.08;49.26;97918.81;615624;230;68543;-70
2023/01/04 01:42:59;;;;;;;;;;;;;;;26.06;49.96;97911.03;615620;230;69357;-71
2023/01/04 01:45:28;;;;;;;;;;;;;;;26.04;49.21;97915.89;615599;230;65060;-71
2023/01/04 01:47:57;;;;;;;;;;;;;;;26.04;49.41;97909.70;615626;230;68879;-71
2023/01/04 01:50:28;;;;;;;;;;;;;;;26.03;48.93;97908.91;615555;230;66665;-70
2023/01/04 01:52:58;;;;;;;;;;;;;;;26.04;49.60;97912.40;615287;230;62875;-70
2023/01/04 01:55:25;;;;;;;;;;;;;;;26.02;48.79;97915.36;615617;230;66660;-70
2023/01/04 01:57:54;;;;;;;;;;;;;;;26.02;48.29;97915.36;615626;230;66610;-70
2023/01/04 02:00:21;;;;;;;;;;;;;;;26.01;49.15;97919.16;615653;230;63039;-68
2023/01/04 02:02:53;;;;;;;;;;;;;;;26.00;50.38;97919.42;615670;230;66682;-68
2023/01/04 02:05:21;;;;;;;;;;;;;;;25.98;48.77;97913.53;615560;230;68363;-68
2023/01/04 02:07:49;;;;;;;;;;;;;;;25.99;49.91;97915.13;615579;230;63022;-68
2023/01/04 02:10:17;;;;;;;;;;;;;;;25.98;48.51;97918.92;615609;230;68754;-68
2023/01/04 02:12:45;;;;;;;;;;;;;;;25.97;50.15;97919.98;615579;230;66862;-68
2023/01/04 02:15:13;;;;;;;;;;;;;;;25.96;49.62;97915.70;615641;230;62948;-68
2023/01/04 02:17:45;;;;;;;;;;;;;;;25.95;48.92;97912.21;615608;230;66594;-68
2023/01/04 02:20:16;;;;;;;;;;;;;;;25.95;49.62;97916.80;606851;230;68590;-68
2023/01/04 02:23:02;;;;;;;;;;;;;;;25.94;48.45;97917.86;615387;230;63024;-68
2023/01/04 02:25:47;;;;;;;;;;;;;;;25.93;48.78;97921.66;615585;230;68702;-68
2023/01/04 02:28:33;;;;;;;;;;;;;;;25.93;49.44;97913.58;616792;230;68701;-68
2023/01/04 02:31:18;;;;;;;;;;;;;;;25.90;48.07;97913.05;617050;230;63139;-67
2023/01/04 02:33:48;;;;;;;;;;;;;;;25.90;50.09;97912.25;617052;230;66366;-70
2023/01/04 02:36:23;;;;;;;;;;;;;;;25.89;49.26;97911.45;617007;230;66581;-67
2023/01/04 02:38:52;;;;;;;;;;;;;;;25.88;50.25;97917.10;616897;230;65348;-68
2023/01/04 02:41:39;;;;;;;;;;;;;;;25.87;48.82;97907.42;617012;230;69003;-68
2023/01/04 02:47:07;;;;;;;;;;;;;;;25.85;49.86;97898.81;616997;230;65344;-67
2023/01/04 02:52:21;;;;;;;;;;;;;;;25.82;49.65;97894.77;617039;230;68744;-67
2023/01/04 02:54:50;;;;;;;;;;;;;;;25.83;50.38;97892.88;600062;236;65318;-67
2023/01/04 02:57:22;;;;;;;;;;;;;;;25.80;50.60;97896.13;600156;236;68811;-67
2023/01/04 02:59:57;;;;;;;;;;;;;;;25.80;50.40;97907.70;600108;236;66687;-67
2023/01/04 03:08:12;;;;;;;;;;;;;;;25.79;49.25;97891.84;600071;236;68594;-67
2023/01/04 03:10:56;;;;;;;;;;;;;;;25.76;51.13;97885.13;596147;233;65032;-68
2023/01/04 03:13:24;;;;;;;;;;;;;;;25.76;50.68;97878.95;589814;240;68647;-68
2023/01/04 03:15:56;;;;;;;;;;;;;;;25.75;49.14;97878.11;589644;240;68590;-68
2023/01/04 03:18:27;;;;;;;;;;;;;;;25.74;49.60;97876.52;589839;232;62933;-68
2023/01/04 03:20:57;;;;;;;;;;;;;;;25.73;50.84;97872.23;609350;230;68737;-68
2023/01/04 03:37:24;;;;;;;;;;;;;;;25.68;48.53;97885.73;609371;232;68753;-67
2023/01/04 03:48:46;;;;;;;;;;;;;;;25.64;50.45;97895.43;610134;232;68557;-68
2023/01/04 03:51:18;;;;;;;;;;;;;;;25.62;50.60;97894.93;610151;232;65285;-68
2023/01/04 03:53:56;;;;;;;;;;;;;;;25.62;50.90;97894.93;609966;232;66155;-68
2023/01/04 03:56:25;;;;;;;;;;;;;;;25.62;50.02;97903.00;610184;232;68448;-68
2023/01/04 03:58:53;;;;;;;;;;;;;;;25.61;51.27;97906.77;610101;231;65302;-68
2023/01/04 04:01:23;;;;;;;;;;;;;;;25.60;50.83;97910.55;610139;232;68828;-70
2023/01/04 04:09:21;;;;;;;;;;;;;;;25.59;50.95;97911.61;610115;232;68743;-71
2023/01/04 04:11:49;;;;;;;;;;;;;;;25.57;49.73;97906.52;610098;232;68590;-71
2023/01/04 04:14:16;;;;;;;;;;;;;;;25.57;50.40;97905.73;610151;232;64978;-71
2023/01/04 04:16:44;;;;;;;;;;;;;;;25.55;49.15;97910.58;610104;232;68819;-71
2023/01/04 04:19:11;;;;;;;;;;;;;;;25.55;50.70;97908.69;610089;232;68659;-71
2023/01/04 04:21:39;;;;;;;;;;;;;;;25.54;51.56;97912.47;610107;232;65091;-71
2023/01/04 04:24:06;;;;;;;;;;;;;;;25.52;49.86;97908.45;610107;232;68841;-68
2023/01/04 04:26:34;;;;;;;;;;;;;;;25.53;51.12;97907.35;610096;232;68665;-68
2023/01/04 04:29:01;;;;;;;;;;;;;;;25.52;50.79;97911.14;610111;232;65063;-71
2023/01/04 04:31:29;;;;;;;;;;;;;;;25.51;51.35;97921.11;610054;232;68721;-71
2023/01/04 04:33:57;;;;;;;;;;;;;;;25.50;50.21;97915.98;610114;232;68643;-71
2023/01/04 04:36:24;;;;;;;;;;;;;;;25.49;49.88;97909.01;610105;232;65062;-71
2023/01/04 04:38:52;;;;;;;;;;;;;;;25.49;49.57;97911.70;610146;232;66601;-71
2023/01/04 04:41:37;;;;;;;;;;;;;;;25.48;49.59;97916.25;610134;232;68361;-71
2023/01/04 04:43:52;;;;;;;;;;;;;;;25.46;50.03;97908.48;609310;232;62598;-70
2023/01/04 04:46:20;;;;;;;;;;;;;;;25.46;49.16;97919.24;610092;232;68748;-69
2023/01/04 04:48:47;;;;;;;;;;;;;;;25.47;49.70;97914.66;610067;232;68835;-69
2023/01/04 04:51:15;;;;;;;;;;;;;;;25.46;51.92;97913.06;610157;232;64909;-69
2023/01/04 04:53:42;;;;;;;;;;;;;;;25.43;51.24;97927.08;610128;232;68766;-69
2023/01/04 04:56:10;;;;;;;;;;;;;;;25.42;52.08;97923.55;610109;232;66745;-69
2023/01/04 04:58:38;;;;;;;;;;;;;;;25.41;49.71;97919.27;610059;232;63231;-69
2023/01/04 05:01:05;;;;;;;;;;;;;;;25.41;50.07;97921.95;610093;232;66815;-69
2023/01/04 05:03:33;;;;;;;;;;;;;;;25.39;50.32;97918.73;610087;231;66539;-69
2023/01/04 05:06:01;;;;;;;;;;;;;;;25.40;51.13;97916.84;610189;232;63034;-69
2023/01/04 05:08:29;;;;;;;;;;;;;;;25.39;52.32;97924.11;610091;232;66459;-69
2023/01/04 05:10:56;;;;;;;;;;;;;;;25.38;51.70;97924.41;610050;232;66820;-69
2023/01/04 05:13:24;;;;;;;;;;;;;;;25.37;51.87;97915.53;610073;232;63110;-69
2023/01/04 05:15:54;;;;;;;;;;;;;;;25.36;50.08;97930.05;610083;232;66828;-69
2023/01/04 05:18:22;;;;;;;;;;;;;;;25.36;49.96;97934.64;610135;232;68742;-68
2023/01/04 05:20:50;;;;;;;;;;;;;;;25.36;52.01;97940.02;610113;232;63640;-69
2023/01/04 05:23:19;;;;;;;;;;;;;;;25.34;52.26;97945.66;610090;232;66610;-70
2023/01/04 05:25:48;;;;;;;;;;;;;;;25.34;52.07;97947.55;610029;231;68483;-71
2023/01/04 05:28:15;;;;;;;;;;;;;;;25.33;50.97;97940.58;609990;232;65040;-71
2023/01/04 05:30:57;;;;;;;;;;;;;;;25.32;50.23;97950.54;610125;232;68629;-71
2023/01/04 05:33:25;;;;;;;;;;;;;;;25.31;49.96;97948.11;609971;232;68599;-70
2023/01/04 05:35:53;;;;;;;;;;;;;;;25.30;48.97;97952.69;610076;232;64932;-70
2023/01/04 05:38:21;;;;;;;;;;;;;;;25.29;50.97;97951.09;610059;232;68908;-70
2023/01/04 05:40:49;;;;;;;;;;;;;;;25.30;50.04;97957.27;610101;232;68803;-70
2023/01/04 05:43:18;;;;;;;;;;;;;;;25.28;49.90;97957.54;610076;232;65048;-70
2023/01/04 05:45:49;;;;;;;;;;;;;;;25.28;51.83;97962.92;610157;232;68600;-70
2023/01/04 05:48:17;;;;;;;;;;;;;;;25.27;51.96;97958.63;610077;232;68545;-71
2023/01/04 05:50:45;;;;;;;;;;;;;;;25.26;52.10;97962.38;610048;232;65170;-70
2023/01/04 05:53:13;;;;;;;;;;;;;;;25.26;52.05;97962.38;610068;232;68836;-70
2023/01/04 05:55:41;;;;;;;;;;;;;;;25.26;52.20;97967.77;610125;232;68284;-70
2023/01/04 05:58:08;;;;;;;;;;;;;;;25.25;52.10;97961.58;610130;232;62899;-71
2023/01/04 06:00:36;;;;;;;;;;;;;;;25.25;51.70;97966.97;610102;232;66557;-71
2023/01/04 06:03:03;;;;;;;;;;;;;;;25.26;51.66;97965.08;610008;231;67973;-70
2023/01/04 06:05:31;;;;;;;;;;;;;;;25.25;49.91;97966.16;610094;232;64896;-70
2023/01/04 06:07:58;;;;;;;;;;;;;;;25.26;51.37;97975.83;610098;232;68824;-70
2023/01/04 06:10:26;;;;;;;;;;;;;;;25.26;50.93;97973.14;610118;232;68731;-69
2023/01/04 06:12:53;;;;;;;;;;;;;;;25.29;51.85;97974.48;610123;232;65102;-69
2023/01/04 06:15:21;;;;;;;;;;;;;;;25.28;51.98;97981.75;610118;232;68770;-69
2023/01/04 06:17:48;;;;;;;;;;;;;;;25.27;50.26;97980.16;610036;232;68845;-71
2023/01/04 06:20:16;;;;;;;;;;;;;;;25.29;52.25;97988.76;610111;232;64975;-71
2023/01/04 06:22:43;;;;;;;;;;;;;;;25.29;50.61;97985.23;610067;232;66321;-71
2023/01/04 06:25:11;;;;;;;;;;;;;;;25.30;50.52;97992.25;610145;231;66699;-69
2023/01/04 06:27:38;;;;;;;;;;;;;;;25.31;50.78;97996.54;609988;232;62934;-71
2023/01/04 06:30:06;;;;;;;;;;;;;;;25.31;51.38;97991.16;610058;232;66775;-71
2023/01/04 06:32:33;;;;;;;;;;;;;;;25.32;49.69;98004.34;610075;232;68933;-71
2023/01/04 06:35:01;;;;;;;;;;;;;;;25.32;49.23;97998.97;610100;232;62773;-71
2023/01/04 06:37:28;;;;;;;;;;;;;;;25.33;50.60;98005.95;610128;232;68993;-67
2023/01/04 06:39:56;;;;;;;;;;;;;;;25.34;50.61;98002.16;610083;232;68611;-67
2023/01/04 06:45:09;;;;;;;;;;;;;;;25.35;50.77;98001.10;610104;232;68884;-68
2023/01/04 06:47:39;;;;;;;;;;;;;;;25.36;49.96;97999.21;609997;232;49652;-67
2023/01/04 06:50:07;;;;;;;;;;;;;;;25.37;50.56;98016.95;610007;232;63056;-67
2023/01/04 06:52:35;;;;;;;;;;;;;;;25.37;52.15;98007.02;610084;232;68878;-68
2023/01/04 06:55:03;;;;;;;;;;;;;;;25.39;52.18;98015.60;610036;232;68654;-69
2023/01/04 06:57:31;;;;;;;;;;;;;;;25.39;51.27;98015.60;610070;232;65091;-75
2023/01/04 06:59:58;;;;;;;;;;;;;;;25.41;51.35;98018.83;610736;232;68707;-70
2023/01/04 07:02:26;;;;;;;;;;;;;;;25.43;52.32;98016.67;609379;232;68764;-67
2023/01/04 07:04:53;;;;;;;;;;;;;;;25.43;47.90;98016.67;610087;232;62666;-66
2023/01/04 07:07:21;;;;;;;;;;;;;;;25.47;51.80;98019.61;610020;232;68778;-68
2023/01/04 07:09:48;;;;;;;;;;;;;;;25.47;50.49;98019.61;614149;229;66086;-68
2023/01/04 07:12:16;;;;;;;;;;;;;;;25.49;53.32;98020.15;614523;230;62991;-69
2023/01/04 07:14:43;;;;;;;;;;;;;;;25.49;50.91;98013.97;614732;230;66572;-66
2023/01/04 07:17:11;;;;;;;;;;;;;;;25.51;50.93;98014.47;614743;230;67007;-69
2023/01/04 07:19:39;;;;;;;;;;;;;;;25.54;50.78;98005.88;614724;230;65063;-67
2023/01/04 07:22:06;;;;;;;;;;;;;;;25.55;49.90;98015.55;614771;230;68813;-66
2023/01/04 07:24:34;;;;;;;;;;;;;;;25.56;48.70;98004.48;614726;230;66736;-67
2023/01/04 07:27:02;;;;;;;;;;;;;;;25.60;49.49;98015.52;614685;230;63817;-67
2023/01/04 07:29:29;;;;;;;;;;;;;;;25.61;50.00;98012.54;614675;231;66845;-67
2023/01/04 07:31:57;;;;;;;;;;;;;;;25.64;50.40;98016.56;614625;231;68567;-69
2023/01/04 07:34:25;;;;;;;;;;;;;;;25.65;49.58;98018.19;614648;231;64834;-69
2023/01/04 07:36:53;;;;;;;;;;;;;;;25.67;48.35;98010.63;614578;231;68534;-69
2023/01/04 07:39:21;;;;;;;;;;;;;;;25.69;49.93;98013.85;614617;231;66651;-67
2023/01/04 07:41:49;;;;;;;;;;;;;;;25.70;50.10;98015.48;614660;231;62720;-67
2023/01/04 07:44:18;;;;;;;;;;;;;;;25.72;48.18;98015.98;614634;231;66848;-68
2023/01/04 07:46:46;;;;;;;;;;;;;;;25.74;49.10;98018.41;614667;231;68721;-69
2023/01/04 07:49:15;;;;;;;;;;;;;;;25.75;48.22;98025.39;614620;231;63069;-69
2023/01/04 07:51:42;;;;;;;;;;;;;;;25.75;48.40;98020.81;614540;231;68859;-69
2023/01/04 07:54:10;;;;;;;;;;;;;;;25.75;46.29;98007.34;614636;231;68769;-69
2023/01/04 07:56:38;;;;;;;;;;;;;;;25.75;46.85;98020.02;614697;231;62936;-69
2023/01/04 07:59:06;;;;;;;;;;;;;;;25.75;46.00;98022.70;614618;231;68311;-69
2023/01/04 08:01:36;;;;;;;;;;;;;;;25.75;46.26;98028.09;614567;231;68524;-69
2023/01/04 08:04:05;;;;;;;;;;;;;;;25.73;47.68;98023.00;614607;231;62981;-67
2023/01/04 08:06:33;;;;;;;;;;;;;;;25.74;47.05;98023.80;614602;231;68572;-68
2023/01/04 08:09:00;;;;;;;;;;;;;;;25.73;45.30;98033.77;614700;231;68556;-67
2023/01/04 08:11:28;;;;;;;;;;;;;;;25.74;46.01;98038.06;614609;231;65004;-67
2023/01/04 08:13:55;;;;;;;;;;;;;;;25.76;47.31;98032.41;614609;231;68493;-69
2023/01/04 08:16:26;;;;;;;;;;;;;;;25.74;45.50;98031.88;614640;231;68498;-72
2023/01/04 08:18:54;;;;;;;;;;;;;;;25.75;46.96;98030.78;614628;231;65022;-68
2023/01/04 08:21:22;;;;;;;;;;;;;;;25.76;47.15;98027.83;614615;231;68587;-67
2023/01/04 08:23:51;;;;;;;;;;;;;;;25.78;47.33;98033.74;614707;231;68408;-67
2023/01/04 08:26:18;;;;;;;;;;;;;;;25.79;47.31;98029.95;614518;231;63006;-68
2023/01/04 08:28:46;;;;;;;;;;;;;;;25.81;46.99;98035.88;613353;231;68825;-69
2023/01/04 08:31:16;;;;;;;;;;;;;;;25.80;47.46;98028.86;613309;231;69036;-68
2023/01/04 08:33:44;;;;;;;;;;;;;;;25.82;46.04;98032.09;613360;231;65039;-68
2023/01/04 08:36:13;;;;;;;;;;;;;;;25.84;45.54;98032.66;613434;231;68809;-71
2023/01/04 08:38:40;;;;;;;;;;;;;;;25.85;47.13;98033.45;613398;231;68736;-68
2023/01/04 08:41:08;;;;;;;;;;;;;;;25.87;45.75;98036.69;613364;231;65064;-68
2023/01/04 08:43:37;;;;;;;;;;;;;;;25.86;46.00;98030.50;613301;231;68898;-71
2023/01/04 08:46:05;;;;;;;;;;;;;;;25.87;47.37;98015.14;613386;231;68704;-67
2023/01/04 08:48:33;;;;;;;;;;;;;;;25.87;45.87;98025.91;613429;231;64923;-65
2023/01/04 08:51:01;;;;;;;;;;;;;;;25.87;47.42;98018.63;613381;231;68701;-66
2023/01/04 08:53:29;;;;;;;;;;;;;;;25.87;47.17;98018.63;613302;231;68728;-66
2023/01/04 08:55:59;;;;;;;;;;;;;;;25.88;44.84;98022.92;613320;231;64967;-66
2023/01/04 08:58:26;;;;;;;;;;;;;;;25.90;45.26;98026.15;613375;231;73240;-67
2023/01/04 09:00:55;;;;;;;;;;;;;;;25.90;46.97;98031.53;613391;231;68789;-67
2023/01/04 09:03:23;;;;;;;;;;;;;;;25.90;46.79;98031.53;613211;230;65092;-67
2023/01/04 09:05:50;;;;;;;;;;;;;;;25.90;46.45;98026.15;613358;231;68661;-66
2023/01/04 09:08:18;;;;;;;;;;;;;;;25.91;46.17;98033.13;613400;231;68653;-68
2023/01/04 09:10:45;;;;;;;;;;;;;;;25.91;46.36;98021.56;613289;231;66613;-68
2023/01/04 09:13:13;;;;;;;;;;;;;;;25.90;46.37;98018.06;613462;231;68836;-68
2023/01/04 09:15:40;;;;;;;;;;;;;;;25.91;45.41;98021.56;613352;231;66465;-68
2023/01/04 09:18:10;;;;;;;;;;;;;;;25.91;46.18;98019.67;613030;230;65133;-67
2023/01/04 09:20:38;;;;;;;;;;;;;;;25.90;46.04;98009.98;612743;231;68864;-68
2023/01/04 09:23:05;;;;;;;;;;;;;;;25.90;46.47;98009.98;612717;231;68715;-67
2023/01/04 09:25:33;;;;;;;;;;;;;;;25.88;46.16;98006.77;612688;231;63809;-67
2023/01/04 09:28:02;;;;;;;;;;;;;;;25.88;45.86;98004.07;613753;231;67474;-67
2023/01/04 09:30:30;;;;;;;;;;;;;;;25.88;46.29;98001.38;614051;231;68667;-66
2023/01/04 09:32:58;;;;;;;;;;;;;;;25.90;46.47;97993.83;613982;231;62596;-67
2023/01/04 09:35:25;;;;;;;;;;;;;;;25.90;46.94;97996.53;614077;231;69014;-66
2023/01/04 09:37:53;;;;;;;;;;;;;;;25.89;46.93;97989.54;614022;231;66467;-65
2023/01/04 09:40:22;;;;;;;;;;;;;;;25.90;47.08;97993.83;614017;231;62981;-66
2023/01/04 09:42:50;;;;;;;;;;;;;;;25.89;47.12;97986.84;614065;231;68962;-64
2023/01/04 09:45:19;;;;;;;;;;;;;;;25.89;45.86;97980.63;613986;231;68958;-67
2023/01/04 09:47:51;;;;;;;;;;;;;;;25.88;46.98;97985.22;613997;231;62882;-73
2023/01/04 09:50:23;;;;;;;;;;;;;;;25.88;46.45;97982.53;613916;230;66602;-67
2023/01/04 09:52:52;;;;;;;;;;;;;;;25.88;46.83;97979.84;613878;230;68785;-68
2023/01/04 09:55:22;;;;;;;;;;;;;;;25.89;47.09;97980.63;613910;230;62931;-67
2023/01/04 09:57:50;;;;;;;;;;;;;;;25.89;47.21;97976.08;614030;231;66670;-70
2023/01/04 10:00:23;;;;;;;;;;;;;;;25.90;46.88;97977.67;613941;231;66583;-69
2023/01/04 10:02:55;;;;;;;;;;;;;;;25.90;47.01;97972.29;614030;231;65028;-68
2023/01/04 10:05:27;;;;;;;;;;;;;;;25.90;46.92;97974.98;613786;230;48477;-67
2023/01/04 10:07:55;;;;;;;;;;;;;;;25.90;47.29;97966.91;614049;231;68791;-68
2023/01/04 10:10:42;;;;;;;;;;;;;;;25.90;47.56;97969.59;614065;231;65134;-67
2023/01/04 10:13:12;;;;;;;;;;;;;;;25.90;45.96;97966.11;614015;231;68985;-68
2023/01/04 10:15:43;;;;;;;;;;;;;;;25.91;46.84;97973.89;613245;231;68758;-68
2023/01/04 10:18:13;;;;;;;;;;;;;;;25.92;47.65;97974.72;613954;230;65023;-66
2023/01/04 10:20:42;;;;;;;;;;;;;;;25.92;47.60;97972.02;614069;231;68833;-68
2023/01/04 10:23:14;;;;;;;;;;;;;;;25.92;45.94;97972.02;614103;231;68653;-68
2023/01/04 10:25:55;;;;;;;;;;;;;;;25.94;45.73;97971.73;614009;231;64935;-68
2023/01/04 10:28:30;;;;;;;;;;;;;;;25.93;46.06;97978.20;613492;231;68642;-68
2023/01/04 10:31:00;;;;;;;;;;;;;;;25.94;47.05;97982.50;613250;231;66447;-67
2023/01/04 10:33:29;;;;;;;;;;;;;;;25.94;46.89;97971.73;613494;231;63011;-68
2023/01/04 10:35:57;;;;;;;;;;;;;;;25.94;45.63;97971.73;613383;231;69878;-67
2023/01/04 10:38:25;;;;;;;;;;;;;;;25.94;47.18;97971.73;613544;231;67633;-68
2023/01/04 10:40:53;;;;;;;;;;;;;;;25.94;46.46;97967.14;613486;231;66076;-68
2023/01/04 10:43:23;;;;;;;;;;;;;;;25.96;46.85;97969.56;613444;231;68761;-68
2023/01/04 10:45:58;;;;;;;;;;;;;;;25.96;47.35;97973.05;612558;231;67690;-68
2023/01/04 10:48:33;;;;;;;;;;;;;;;25.97;48.53;97971.16;613396;231;65373;-68
2023/01/04 10:51:01;;;;;;;;;;;;;;;25.98;47.09;97975.48;613441;231;66720;-68
2023/01/04 10:53:36;;;;;;;;;;;;;;;25.96;47.82;97970.36;613545;231;68671;-68
2023/01/04 10:56:14;;;;;;;;;;;;;;;25.97;47.72;97977.34;613315;231;64936;-68
2023/01/04 10:58:49;;;;;;;;;;;;;;;25.98;48.03;97973.59;613500;231;66502;-68
2023/01/04 11:01:23;;;;;;;;;;;;;;;26.00;47.37;97981.37;613304;231;68954;-73
2023/01/04 11:03:56;;;;;;;;;;;;;;;26.01;45.62;97977.61;613447;231;64835;-70
2023/01/04 11:06:25;;;;;;;;;;;;;;;26.00;47.38;97975.98;613525;231;68743;-70
2023/01/04 11:09:03;;;;;;;;;;;;;;;26.01;46.51;97977.61;613528;231;68747;-69
2023/01/04 11:11:35;;;;;;;;;;;;;;;26.01;47.47;97980.30;613438;231;62958;-71
2023/01/04 11:14:03;;;;;;;;;;;;;;;26.01;47.61;97977.61;613497;231;68765;-72
2023/01/04 11:16:31;;;;;;;;;;;;;;;26.01;46.71;97974.92;613516;231;66564;-70
2023/01/04 11:19:02;;;;;;;;;;;;;;;26.03;46.85;97975.45;613500;231;62749;-70
2023/01/04 11:21:31;;;;;;;;;;;;;;;26.04;47.51;97977.05;613585;231;68741;-71
2023/01/04 11:23:59;;;;;;;;;;;;;;;26.04;48.52;97977.05;613466;231;66713;-70
2023/01/04 11:26:29;;;;;;;;;;;;;;;26.03;41.94;97970.86;613478;231;63031;-69
2023/01/04 11:28:58;;;;;;;;;;;;;;;26.05;45.27;97965.97;614009;230;68875;-70
2023/01/04 11:31:29;;;;;;;;;;;;;;;26.06;45.87;97970.30;613642;230;66513;-70
2023/01/04 11:33:58;;;;;;;;;;;;;;;26.07;46.54;97965.70;613998;231;62923;-69
2023/01/04 11:36:27;;;;;;;;;;;;;;;26.07;46.56;97976.48;614120;231;68808;-70
2023/01/04 11:38:55;;;;;;;;;;;;;;;26.06;46.27;97967.60;611043;230;68631;-70
2023/01/04 11:41:23;;;;;;;;;;;;;;;26.08;45.10;97967.30;614092;231;65085;-69
2023/01/04 11:44:02;;;;;;;;;;;;;;;26.09;45.52;97968.93;614083;231;68866;-70
2023/01/04 11:46:30;;;;;;;;;;;;;;;26.09;45.82;97960.84;614021;231;68701;-68
2023/01/04 11:48:58;;;;;;;;;;;;;;;26.10;47.00;97965.14;614062;231;65036;-69
2023/01/04 11:51:35;;;;;;;;;;;;;;;26.10;46.15;97965.94;614117;231;68849;-69
2023/01/04 11:54:01;;;;;;;;;;;;;;;26.11;45.30;97966.77;613630;230;68660;-69
2023/01/04 11:56:29;;;;;;;;;;;;;;;26.12;46.98;97965.67;614086;231;62920;-69
2023/01/04 11:59:04;;;;;;;;;;;;;;;26.13;46.81;97961.88;614101;231;68749;-70
2023/01/04 12:01:33;;;;;;;;;;;;;;;26.13;46.18;97951.91;613925;231;66495;-69
2023/01/04 12:04:01;;;;;;;;;;;;;;;26.13;46.27;97949.20;614129;231;62998;-67
2023/01/04 12:06:37;;;;;;;;;;;;;;;26.14;45.58;97952.73;614087;231;66664;-68
2023/01/04 12:09:04;;;;;;;;;;;;;;;26.13;47.23;97951.91;613719;230;68212;-67
2023/01/04 12:11:33;;;;;;;;;;;;;;;26.11;46.25;97946.02;614135;231;65019;-68
2023/01/04 12:14:01;;;;;;;;;;;;;;;26.10;46.21;97943.59;614079;231;68462;-71
2023/01/04 12:16:47;;;;;;;;;;;;;;;26.09;47.16;97941.99;614016;231;68708;-70
2023/01/04 12:19:18;;;;;;;;;;;;;;;26.08;47.66;97934.98;614059;231;65101;-75
2023/01/04 12:21:47;;;;;;;;;;;;;;;26.08;48.39;97934.98;613985;231;68452;-71
2023/01/04 12:24:16;;;;;;;;;;;;;;;26.09;48.43;97937.41;614028;230;68528;-71
2023/01/04 12:26:44;;;;;;;;;;;;;;;26.08;45.86;97929.59;614343;231;62996;-68
2023/01/04 12:29:22;;;;;;;;;;;;;;;26.15;46.54;97935.47;613364;231;66363;-68
2023/01/04 12:31:53;;;;;;;;;;;;;;;26.16;48.52;97939.76;613108;231;66580;-71
2023/01/04 12:34:24;;;;;;;;;;;;;;;26.17;46.86;97944.08;613245;231;65109;-68
2023/01/04 12:36:54;;;;;;;;;;;;;;;26.19;46.91;97944.61;613108;230;66324;-72
2023/01/04 12:39:27;;;;;;;;;;;;;;;26.25;44.11;97939.98;612551;230;66621;-68
2023/01/04 12:42:00;;;;;;;;;;;;;;;26.29;45.10;97952.58;613204;230;62942;-73
2023/01/04 12:44:38;;;;;;;;;;;;;;;26.32;45.09;97946.62;613251;230;68902;-71
2023/01/04 12:50:14;;;;;;;;;;;;;;;26.38;45.06;97949.27;613400;231;63093;-73
2023/01/04 12:52:46;;;;;;;;;;;;;;;26.40;42.35;97941.72;613440;231;66521;-70
2023/01/04 12:55:40;;;;;;;;;;;;;;;26.41;46.19;97944.14;613255;231;51290;-72
2023/01/04 12:58:04;;;;;;;;;;;;;;;26.44;43.56;97948.16;613175;231;63205;-71
2023/01/04 13:00:48;;;;;;;;;;;;;;;26.45;45.60;97949.77;612761;231;68723;-72
2023/01/04 13:03:18;;;;;;;;;;;;;;;26.46;45.84;97954.05;613202;230;68739;-69
2023/01/04 13:05:57;;;;;;;;;;;;;;;26.48;45.31;97959.97;611427;230;63673;-69
2023/01/04 13:08:32;;;;;;;;;;;;;;;26.50;46.11;97963.19;611472;227;68797;-76
2023/01/04 13:11:01;;;;;;;;;;;;;;;26.51;47.15;97956.73;623482;227;53216;-72
2023/01/04 13:13:50;;;;;;;;;;;;;;;26.50;47.76;97958.59;617341;227;47554;-73
2023/01/04 13:16:19;;;;;;;;;;;;;;;26.49;43.26;97962.39;615078;227;66559;-71
2023/01/04 13:18:51;;;;;;;;;;;;;;;26.52;44.44;97958.36;614658;228;68488;-73
2023/01/04 13:21:29;;;;;;;;;;;;;;;26.53;46.32;97966.14;613689;231;65118;-69
2023/01/04 13:23:58;;;;;;;;;;;;;;;26.54;45.29;97958.86;613626;231;68642;-69
2023/01/04 13:26:40;;;;;;;;;;;;;;;26.55;44.72;97960.48;615200;230;68189;-69
2023/01/04 13:29:13;;;;;;;;;;;;;;;26.55;48.22;97953.19;614325;231;63034;-68
2023/01/04 13:31:42;;;;;;;;;;;;;;;26.57;47.95;97958.28;610644;231;66435;-69
2023/01/04 13:34:11;;;;;;;;;;;;;;;26.60;45.43;97956.91;610121;231;66794;-69
2023/01/04 13:36:38;;;;;;;;;;;;;;;26.60;45.36;97955.05;609399;231;62835;-73
2023/01/04 13:39:07;;;;;;;;;;;;;;;26.60;45.88;97954.22;610263;232;66472;-71
2023/01/04 13:41:34;;;;;;;;;;;;;;;26.61;48.64;97958.54;610147;232;66550;-72
2023/01/04 13:44:06;;;;;;;;;;;;;;;26.60;48.66;97955.05;610362;231;62732;-70
2023/01/04 13:46:34;;;;;;;;;;;;;;;26.59;45.47;97955.31;609672;231;66617;-71